地図

経路データ

SID SEASON NUMBER BASIN SUBBASIN NAME ISO_TIME NATURE LAT LON WMO_WIND WMO_PRES WMO_AGENCY TRACK_TYPE DIST2LAND LANDFALL IFLAG USA_AGENCY USA_ATCF_ID USA_LAT USA_LON USA_RECORD USA_STATUS USA_WIND USA_PRES USA_SSHS USA_R34_NE USA_R34_SE USA_R34_SW USA_R34_NW USA_R50_NE USA_R50_SE USA_R50_SW USA_R50_NW USA_R64_NE USA_R64_SE USA_R64_SW USA_R64_NW USA_POCI USA_ROCI USA_RMW USA_EYE TOKYO_LAT TOKYO_LON TOKYO_GRADE TOKYO_WIND TOKYO_PRES TOKYO_R50_DIR TOKYO_R50_LONG TOKYO_R50_SHORT TOKYO_R30_DIR TOKYO_R30_LONG TOKYO_R30_SHORT TOKYO_LAND CMA_LAT CMA_LON CMA_CAT CMA_WIND CMA_PRES HKO_LAT HKO_LON HKO_CAT HKO_WIND HKO_PRES NEWDELHI_LAT NEWDELHI_LON NEWDELHI_GRADE NEWDELHI_WIND NEWDELHI_PRES NEWDELHI_CI NEWDELHI_DP NEWDELHI_POCI REUNION_LAT REUNION_LON REUNION_TYPE REUNION_WIND REUNION_PRES REUNION_TNUM REUNION_CI REUNION_RMW REUNION_R34_NE REUNION_R34_SE REUNION_R34_SW REUNION_R34_NW REUNION_R50_NE REUNION_R50_SE REUNION_R50_SW REUNION_R50_NW REUNION_R64_NE REUNION_R64_SE REUNION_R64_SW REUNION_R64_NW BOM_LAT BOM_LON BOM_TYPE BOM_WIND BOM_PRES BOM_TNUM BOM_CI BOM_RMW BOM_R34_NE BOM_R34_SE BOM_R34_SW BOM_R34_NW BOM_R50_NE BOM_R50_SE BOM_R50_SW BOM_R50_NW BOM_R64_NE BOM_R64_SE BOM_R64_SW BOM_R64_NW BOM_ROCI BOM_POCI BOM_EYE BOM_POS_METHOD BOM_PRES_METHOD NADI_LAT NADI_LON NADI_CAT NADI_WIND NADI_PRES WELLINGTON_LAT WELLINGTON_LON WELLINGTON_WIND WELLINGTON_PRES DS824_LAT DS824_LON DS824_STAGE DS824_WIND DS824_PRES TD9636_LAT TD9636_LON TD9636_STAGE TD9636_WIND TD9636_PRES TD9635_LAT TD9635_LON TD9635_WIND TD9635_PRES TD9635_ROCI NEUMANN_LAT NEUMANN_LON NEUMANN_CLASS NEUMANN_WIND NEUMANN_PRES MLC_LAT MLC_LON MLC_CLASS MLC_WIND MLC_PRES USA_GUST BOM_GUST BOM_GUST_PER REUNION_GUST REUNION_GUST_PER USA_SEAHGT USA_SEARAD_NE USA_SEARAD_SE USA_SEARAD_SW USA_SEARAD_NW STORM_SPEED STORM_DIR
1961270N20090 1961 98 NI BB NOT_NAMED 1961-09-26 18:00:00 TS 20.1000 89.5000 main 172 161 O________O____ jtwc_io IO151961 20.1000 89.5000 -1 20.1000 89.5000 TC 2 16
1961270N20090 1961 98 NI BB NOT_NAMED 1961-09-26 21:00:00 TS 20.1850 89.5000 main 161 151 P________P____ IO151961 20.1850 89.5000 -1 20.1850 89.5000 TC 2 8
1961270N20090 1961 98 NI BB NOT_NAMED 1961-09-27 00:00:00 TS 20.3000 89.5000 main 151 129 O________O____ jtwc_io IO151961 20.3000 89.5000 -1 20.3000 89.5000 TC 25 3 0
1961270N20090 1961 98 NI BB NOT_NAMED 1961-09-27 03:00:00 TS 20.4733 89.5000 main 129 108 P________PO___ IO151961 20.4700 89.5000 -1 20.4700 89.5000 TC 25 20.5000 89.5000 1 4 2
1961270N20090 1961 98 NI BB NOT_NAMED 1961-09-27 06:00:00 TS 20.7147 89.5078 main 108 78 O________OP___ jtwc_io IO151961 20.7000 89.5000 -1 20.7000 89.5000 TC 25 20.7734 89.5387 1 5 0
1961270N20090 1961 98 NI BB NOT_NAMED 1961-09-27 09:00:00 TS 21.0102 89.5224 main 78 45 P________PP___ IO151961 21.0000 89.5075 -1 21.0000 89.5075 TC 25 21.0375 89.5621 1 6 2
1961270N20090 1961 98 NI BB NOT_NAMED 1961-09-27 12:00:00 TS 21.2943 89.5181 main 45 24 O________OP___ jtwc_io IO151961 21.3000 89.5000 -1 21.3000 89.5000 TC 25 21.2828 89.5544 1 5 356
1961270N20090 1961 98 NI BB NOT_NAMED 1961-09-27 15:00:00 TS 21.5200 89.4867 main 24 0 P________PO___ IO151961 21.5300 89.4800 -1 21.5300 89.4800 TC 25 21.5000 89.5000 1 4 344
1961270N20090 1961 98 NI BB NOT_NAMED 1961-09-27 18:00:00 TS 21.6937 89.3959 main 0 0 O________OP___ jtwc_io IO151961 21.7000 89.4000 -1 21.7000 89.4000 TC 25 21.6812 89.3877 1 4 321
1961270N20090 1961 98 NI BB NOT_NAMED 1961-09-27 21:00:00 TS 21.8233 89.2235 main 0 0 P________PP___ IO151961 21.8225 89.2225 -1 21.8225 89.2225 TC 25 21.8250 89.2253 1 4 301
1961270N20090 1961 98 NI BB NOT_NAMED 1961-09-28 00:00:00 TS 21.9104 89.0084 main 0 0 O________OP___ jtwc_io IO151961 21.9000 89.0000 -1 21.9000 89.0000 TC 25 21.9312 89.0252 1 4 292
1961270N20090 1961 98 NI BB NOT_NAMED 1961-09-28 03:00:00 TS 21.9766 88.8050 main 0 0 P________PO___ IO151961 21.9649 88.8075 -1 21.9649 88.8075 TC 25 22.0000 88.8000 1 4 285
1961270N20090 1961 98 NI BB NOT_NAMED 1961-09-28 06:00:00 TS 22.0147 88.5932 main 0 0 O________OP___ jtwc_io IO151961 22.0000 88.6000 -1 22.0000 88.6000 TC 25 22.0440 88.5796 1 4 276
1961270N20090 1961 98 NI BB NOT_NAMED 1961-09-28 09:00:00 TS 22.0224 88.3558 main 0 0 P________PP___ IO151961 22.0075 88.3650 -1 22.0075 88.3650 TC 25 22.0524 88.3374 1 5 270
1961270N20090 1961 98 NI BB NOT_NAMED 1961-09-28 12:00:00 TS 22.0115 88.0922 main 0 0 O________OP___ jtwc_io IO151961 22.0000 88.1000 -1 22.0000 88.1000 TC 25 22.0346 88.0765 1 5 269
1961270N20090 1961 98 NI BB NOT_NAMED 1961-09-28 15:00:00 TS 22.0100 87.8051 main 0 0 P________PO___ IO151961 22.0150 87.8076 -1 22.0150 87.8076 TC 25 22.0000 87.8000 1 5 267
1961270N20090 1961 98 NI BB NOT_NAMED 1961-09-28 18:00:00 TS 21.9867 87.5115 main 0 0 O________OP___ jtwc_io IO151961 22.0000 87.5000 -1 22.0000 87.5000 TC 25 21.9600 87.5346 1 6 259
1961270N20090 1961 98 NI BB NOT_NAMED 1961-09-28 21:00:00 TS 21.9073 87.2224 main 0 0 P________PP___ IO151961 21.9074 87.2074 -1 21.9074 87.2074 TC 25 21.9070 87.2523 1 6 253
1961270N20090 1961 98 NI BB NOT_NAMED 1961-09-29 00:00:00 TS 21.8168 86.9146 main 0 0 O________OP___ jtwc_io IO151961 21.8000 86.9000 -1 21.8000 86.9000 TC 25 21.8505 86.9439 1 6 256
1961270N20090 1961 98 NI BB NOT_NAMED 1961-09-29 03:00:00 TS 21.7566 86.5817 main 0 0 P________PO___ IO151961 21.7349 86.5725 -1 21.7349 86.5725 TC 25 21.8000 86.6000 1 7 261
1961270N20090 1961 98 NI BB NOT_NAMED 1961-09-29 06:00:00 TS 21.7106 86.1953 main 0 0 O________OP___ jtwc_io IO151961 21.7000 86.2000 -1 21.7000 86.2000 TC 25 21.7317 86.1860 1 8 265
1961270N20090 1961 98 NI BB NOT_NAMED 1961-09-29 09:00:00 TS 21.6820 85.7472 main 0 0 P________PP___ IO151961 21.6851 85.7500 -1 21.6851 85.7500 TC 25 21.6757 85.7417 1 8 268
1961270N20090 1961 98 NI BB NOT_NAMED 1961-09-29 12:00:00 TS 21.6856 85.3005 main 0 0 O________OP___ jtwc_io IO151961 21.7000 85.3000 -1 21.7000 85.3000 TC 25 21.6567 85.3016 1 8 272
1961270N20090 1961 98 NI BB NOT_NAMED 1961-09-29 15:00:00 TS 21.7082 84.9182 main 0 0 P________PO___ IO151961 21.7124 84.9273 -1 21.7124 84.9273 TC 25 21.7000 84.9000 1 7 281
1961270N20090 1961 98 NI BB NOT_NAMED 1961-09-29 18:00:00 TS 21.8103 84.5834 main 0 0 O________OP___ jtwc_io IO151961 21.8000 84.6000 -1 21.8000 84.6000 TC 25 21.8310 84.5501 1 7 298
1961270N20090 1961 98 NI BB NOT_NAMED 1961-09-29 21:00:00 TS 22.0266 84.2621 main 0 0 P________PP___ IO151961 22.0275 84.2702 -1 22.0275 84.2702 TC 25 22.0247 84.2459 1 7 311
1961270N20090 1961 98 NI BB NOT_NAMED 1961-09-30 00:00:00 TS 22.2854 83.9979 main 0 0 O________OP___ jtwc_io IO151961 22.3000 84.0000 -1 22.3000 84.0000 TC 25 22.2561 83.9937 1 6 319
1961270N20090 1961 98 NI BB NOT_NAMED 1961-09-30 03:00:00 TS 22.4999 83.8132 main 0 0 P________PO___ IO151961 22.4999 83.8198 -1 22.4999 83.8198 TC 25 22.5000 83.8000 1 5 326
1961270N20090 1961 98 NI BB NOT_NAMED 1961-09-30 06:00:00 TS 22.7140 83.6823 main 0 0 O________OP___ jtwc_io IO151961 22.7000 83.7000 -1 22.7000 83.7000 TC 25 22.7419 83.6470 1 5 334
1961270N20090 1961 98 NI BB NOT_NAMED 1961-09-30 09:00:00 TS 22.9674 83.5691 main 0 0 P________PP___ IO151961 22.9575 83.5775 -1 22.9575 83.5775 TC 25 22.9872 83.5522 1 5 341
1961270N20090 1961 98 NI BB NOT_NAMED 1961-09-30 12:00:00 TS 23.2046 83.5021 main 0 0 O________OP___ jtwc_io IO151961 23.2000 83.5000 -1 23.2000 83.5000 TC 25 23.2139 83.5064 1 4 351
1961270N20090 1961 98 NI BB NOT_NAMED 1961-09-30 15:00:00 TS 23.3867 83.4900 main 0 0 P________PO___ IO151961 23.3800 83.4849 -1 23.3800 83.4849 TC 25 23.4000 83.5000 1 3 0
1961270N20090 1961 98 NI BB NOT_NAMED 1961-09-30 18:00:00 TS 23.5046 83.4925 main 0 0 O________OP___ jtwc_io IO151961 23.5000 83.5000 -1 23.5000 83.5000 TC 25 23.5138 83.4775 1 2 355
1961270N20090 1961 98 NI BB NOT_NAMED 1961-09-30 21:00:00 TS 23.5674 83.4784 main 0 0 P________PP___ IO151961 23.5575 83.4701 -1 23.5575 83.4701 TC 25 23.5871 83.4951 1 1 12
1961270N20090 1961 98 NI BB NOT_NAMED 1961-10-01 00:00:00 TS 23.6140 83.5217 main 0 0 O________OP___ jtwc_io IO151961 23.6000 83.5000 -1 23.6000 83.5000 TC 25 23.6419 83.5652 1 2 54
1961270N20090 1961 98 NI BB NOT_NAMED 1961-10-01 03:00:00 TS 23.6950 83.6700 main 0 0 P________PO___ IO151961 23.6925 83.6550 -1 23.6925 83.6550 TC 25 23.7000 83.7000 1 4 62
1961270N20090 1961 98 NI BB NOT_NAMED 1961-10-01 06:00:00 TS 23.8004 83.9020 main 0 0 O________OP___ jtwc_io IO151961 23.8000 83.9000 -1 23.8000 83.9000 TC 25 23.8011 83.9060 1 5 66
1961270N20090 1961 98 NI BB NOT_NAMED 1961-10-01 09:00:00 TS 23.9026 84.1816 main 0 0 P________PP___ IO151961 23.9000 84.1850 -1 23.9000 84.1850 TC 25 23.9077 84.1747 1 6 69
1961270N20090 1961 98 NI BB NOT_NAMED 1961-10-01 12:00:00 TS 24.0035 84.4937 main 0 0 O________OP___ jtwc_io IO151961 24.0000 84.5000 -1 24.0000 84.5000 TC 25 24.0104 84.4810 1 6 70
1961270N20090 1961 98 NI BB NOT_NAMED 1961-10-01 15:00:00 TS 24.1100 84.8000 main 0 0 P________PO___ IO151961 24.1149 84.7999 -1 24.1149 84.7999 TC 25 24.1000 84.8000 1 6 73
1961270N20090 1961 98 NI BB NOT_NAMED 1961-10-01 18:00:00 TS 24.1773 85.0992 main 0 0 O________OP___ jtwc_io IO151961 24.2000 85.1000 -1 24.2000 85.1000 TC 25 24.1318 85.0976 1 6 82
1961270N20090 1961 98 NI BB NOT_NAMED 1961-10-01 21:00:00 TS 24.1849 85.4005 main 0 0 P________PP___ IO151961 24.1999 85.4002 -1 24.1999 85.4002 TC 25 24.1549 85.4011 1 5 88
1961270N20090 1961 98 NI BB NOT_NAMED 1961-10-02 00:00:00 TS 24.2002 85.7013 main 0 0 O________OP___ jtwc_io IO151961 24.2000 85.7000 -1 24.2000 85.7000 TC 25 24.2006 85.7039 1 6 81
1961270N20090 1961 98 NI BB NOT_NAMED 1961-10-02 03:00:00 TS 24.2700 86.0051 main 0 0 P________PO___ IO151961 24.2550 86.0076 -1 24.2550 86.0076 TC 25 24.3000 86.0000 1 6 67
1961270N20090 1961 98 NI BB NOT_NAMED 1961-10-02 06:00:00 TS 24.4303 86.2940 main 0 0 O________OP___ jtwc_io IO151961 24.4000 86.3000 -1 24.4000 86.3000 TC 25 24.4758 86.2849 1 7 50
1961270N20090 1961 98 NI BB NOT_NAMED 1961-10-02 09:00:00 TS 24.6866 86.5602 main 0 0 P________PP___ IO151961 24.6650 86.5597 -1 24.6650 86.5597 TC 25 24.7153 86.5608 1 7 40
1961270N20090 1961 98 NI BB NOT_NAMED 1961-10-02 12:00:00 TS 24.9986 86.8157 main 0 0 O________OP___ jtwc_io IO151961 25.0000 86.8000 -1 25.0000 86.8000 TC 25 24.9972 86.8314 1 8 39
1961270N20090 1961 98 NI BB NOT_NAMED 1961-10-02 15:00:00 NR 25.3000 87.1000 main 0 __________O___ IO151961 -1 TC 25.3000 87.1000 1 8 40

IBTrACS Databaseについて

本データベースは、米国NOAAが公開する1842年以降の世界の熱帯低気圧のベストトラックデータアーカイブInternational Best Track Archive for Climate Stewardship (IBTrACS)を、ウェブで閲覧しやすい形式に変換したものです。

最終更新日:2021-11-26